Current Conditions

Updated: 13-Aug-2018 11:52 PM  
Summary / Temperature Wind Rain






Feels like: 78°F

1-hour difference
0.6°F 0.6°F colder than last hour.

24-hour difference
4.2°F4.2°F warmer than yesterday at this time.

  Today Yesterday
High: 99.4°F
4:06 PM
102.1°F
4:02 PM
Low: 65.5°F
6:02 AM
67.9°F
5:57 AM
Calm NW
0.0
Gust:  0.0 mph
0 Beaufort - Calm

Today: 6.0 - 4:57 PM
Month: 9.2 mph - Aug 1
Rain Today: 0.00 in
Current Rate (/hr): 0.000 in
Max Rate (/hr):
Rain Yesterday: 0.00 in
Storm Rain: 0.00 in
This Month: 0.00 in
Season Total: 6.40 in
Last Rain Event: 118 days ago
Humidity / Barometer Sun / Moon
Humidity: 51 Decreased 3.0% in the last hour.
Dew Point: 58.8°F Decreased 2.0°F in the last hour.
Barometer: 29.784 inHg  
Baro Trend: Steady
Sunrise: 6:13 AM
Sunset: 7:49 PM
Moonrise: 9:53 AM
Moonset: 9:40 PM
Sky Conditions UV Index
Summary: Clear
Visibility: 10 miles
Clouds: None
KVIS - 10:56 PM PDT
Current: 0.0  None 
Tuesday: 9.3  Very High 
Wednesday: 9.6  Very High 
Air Quality Fire Danger
 Moderate 
Ozone 40 ppb
PM 2.5 16 μg/m3
11:40 PM PDT
Current: 20  Low 

Local Alerts Local Forecast
Local NWS Alerts
Tonight

Hazy

Low 67
Tue

Hazy

High 99
Tue night

Hazy

Low 67
Wed

Hazy

High 99
Wed night

Hazy

Low 68
Thu

Hazy

High 100
Thu night

Hazy

Low 68

Local Radar Local Satellite Neighborhood Cam Sky Cam
Local Radar Local Satellite Neighborhood Cam Sky Cam


Nearby Personal Stations

Weather Underground PWS KCAEXETE7     Weather Underground PWS KCAEXETE6     Weather Underground PWS KCAEXETE11

Nearby Airport Stations

KVIS - Visalia, California, USA
Distance from station: W 14mi, 23km
Updated: Mon, 13-Aug-2018 10:56pm PDT
Clear
Clear
 Wind from NNW
Wind: NNW 8 mph , 13 km/h
Temperature: 82°F , 28°C
Dew Point: 54°F , 12°C
Humidity: 37%
Barometer: 29.84 inHg , 1010.5 hPa
Clouds: Clear
Visibility: 10 miles , 16 km
2018/08/14 05:56 KVIS 140556Z AUTO 33007KT 10SM CLR 28/12 A2984 RMK AO2 SLP105 T02780122 10361 20272 51010
KPTV - Porterville, California, USA
Distance from station: SSE 19mi, 31km
Updated: Mon, 13-Aug-2018 10:56pm PDT
Clear
Clear
 Wind from NNW
Wind: NNW 7 mph , 11 km/h
Temperature: 81°F , 27°C
Heat Index: 81°F , 27°C
Dew Point: 55°F , 13°C
Humidity: 42%
Barometer: 29.84 inHg , 1010.5 hPa
Clouds: Clear
Visibility: 10 miles , 16 km
2018/08/14 05:56 KPTV 140556Z AUTO 33006KT 10SM CLR 27/13 A2984 RMK AO2 SLP108 T02720128 10372 20272 52008

Metar display script from Saratoga-Weather.org



Visitor Map